Time;durP1;ratioP1;P1;durP2;ratioP2;P2;SDS_P1;SDS_P2;PMS_P1;PMS_P2;Temp;Humidity;BMP_temperature;BMP_pressure;BME280_temperature;BME280_humidity;BME280_pressure;Samples;Min_cycle;Max_cycle;Signal;HPM_P1;HPM_P2
2023/03/01 00:00:38;;;;;;;14.17;7.63;;;;;;;-145.18;100.00;46832.28;4970809;28;20153;-67
2023/03/01 00:03:03;;;;;;;12.30;7.77;;;;;;;-145.18;100.00;46832.28;4970521;28;20117;-67
2023/03/01 00:05:29;;;;;;;18.70;8.67;;;;;;;-145.18;100.00;46810.81;4970617;28;20117;-68
2023/03/01 00:07:54;;;;;;;13.90;8.27;;;;;;;-145.18;100.00;46799.09;4972667;28;20354;-67
2023/03/01 00:10:19;;;;;;;15.47;8.43;;;;;;;-145.18;100.00;46787.38;4974089;28;20178;-67
2023/03/01 00:12:45;;;;;;;17.03;8.80;;;;;;;-145.18;100.00;46785.41;4973829;28;20066;-67
2023/03/01 00:15:11;;;;;;;18.10;8.37;;;;;;;-145.18;100.00;46789.31;4973871;28;20510;-68
2023/03/01 00:17:36;;;;;;;15.77;9.55;;;;;;;-145.18;100.00;46777.59;4973777;28;20607;-67
2023/03/01 00:20:02;;;;;;;13.23;8.73;;;;;;;-145.18;100.00;46793.22;4973863;28;20031;-68
2023/03/01 00:22:30;;;;;;;16.93;8.33;;;;;;;-145.18;100.00;46781.50;4973647;28;20073;-67
2023/03/01 00:24:56;;;;;;;17.98;8.50;;;;;;;-145.18;100.00;46795.19;4973893;28;20559;-68
2023/03/01 00:27:21;;;;;;;17.47;8.43;;;;;;;-145.18;100.00;46803.00;4973438;28;20126;-67
2023/03/01 00:29:46;;;;;;;15.03;8.00;;;;;;;-145.18;100.00;46812.75;4973737;28;20054;-67
2023/03/01 00:32:12;;;;;;;13.80;8.30;;;;;;;-145.18;100.00;46808.84;4973672;28;20042;-67
2023/03/01 00:34:37;;;;;;;18.43;9.33;;;;;;;-145.18;100.00;46812.75;4973894;28;20496;-67
2023/03/01 00:37:04;;;;;;;12.80;8.57;;;;;;;-145.18;100.00;46814.72;4973395;28;20109;-67
2023/03/01 00:39:31;;;;;;;12.57;8.13;;;;;;;-145.18;100.00;46808.84;4973472;28;20043;-67
2023/03/01 00:41:57;;;;;;;12.93;8.02;;;;;;;-145.18;100.00;46767.84;4973413;28;20376;-67
2023/03/01 00:44:22;;;;;;;15.27;8.60;;;;;;;-145.18;100.00;46760.00;4973398;28;20041;-67
2023/03/01 00:46:48;;;;;;;16.30;8.53;;;;;;;-145.18;100.00;46777.59;4973504;28;20039;-67
2023/03/01 00:49:13;;;;;;;12.30;7.77;;;;;;;-145.18;100.00;46769.78;4973341;28;20042;-68
2023/03/01 00:51:41;;;;;;;15.67;8.40;;;;;;;-145.18;100.00;46763.91;4973247;28;20068;-68
2023/03/01 00:54:09;;;;;;;12.15;7.95;;;;;;;-145.18;100.00;46746.34;4973431;28;20056;-67
2023/03/01 00:56:34;;;;;;;18.00;8.57;;;;;;;-145.18;100.00;46744.38;4972972;28;20414;-67
2023/03/01 00:59:00;;;;;;;13.60;8.37;;;;;;;-145.18;100.00;46742.44;4956026;28;20042;-67
2023/03/01 01:01:31;;;;;;;14.63;7.83;;;;;;;-145.18;100.00;46752.19;4972717;28;20373;-68
2023/03/01 01:03:59;;;;;;;19.92;8.65;;;;;;;-145.18;100.00;46756.09;4955687;28;20046;-67
2023/03/01 01:06:36;;;;;;;12.15;8.48;;;;;;;-145.18;100.00;46765.88;4988736;28;20045;-68
2023/03/01 01:09:03;;;;;;;15.90;8.75;;;;;;;-145.18;100.00;46758.06;4992916;28;20124;-67
2023/03/01 01:11:29;;;;;;;12.98;8.25;;;;;;;-145.18;100.00;46754.16;4992181;28;20535;-68
2023/03/01 01:13:56;;;;;;;14.43;8.23;;;;;;;-145.18;100.00;46744.38;4975112;28;20395;-67
2023/03/01 01:16:23;;;;;;;13.25;8.50;;;;;;;-145.18;100.00;46736.56;4991996;28;20030;-67
2023/03/01 01:18:49;;;;;;;12.27;8.35;;;;;;;-145.18;100.00;46707.28;4992116;28;20582;-67
2023/03/01 01:21:16;;;;;;;16.10;8.83;;;;;;;-145.18;100.00;46713.13;4992109;28;20141;-68
2023/03/01 01:23:44;;;;;;;14.25;8.05;;;;;;;-145.18;100.00;46713.13;4992212;28;20691;-67
2023/03/01 01:26:22;;;;;;;12.15;8.48;;;;;;;-145.18;100.00;46705.31;4992066;28;20098;-67
2023/03/01 01:28:48;;;;;;;20.73;9.10;;;;;;;-145.18;100.00;46707.28;4992297;28;20096;-67
2023/03/01 01:31:14;;;;;;;12.98;8.90;;;;;;;-145.18;100.00;46711.19;4991706;28;20434;-67
2023/03/01 01:33:40;;;;;;;13.73;8.75;;;;;;;-145.18;100.00;46713.13;4992143;28;20030;-67
2023/03/01 01:36:07;;;;;;;13.40;8.20;;;;;;;-145.18;100.00;46715.09;4991964;28;20491;-67
2023/03/01 01:38:33;;;;;;;15.88;9.45;;;;;;;-145.18;100.00;46715.09;4991676;28;20034;-68
2023/03/01 01:40:59;;;;;;;13.85;8.70;;;;;;;-145.18;100.00;46707.28;4974437;28;20042;-68
2023/03/01 01:43:49;;;;;;;13.50;8.30;;;;;;;-145.18;100.00;46722.91;4991390;28;20093;-67
2023/03/01 01:46:32;;;;;;;15.43;8.27;;;;;;;-145.18;100.00;46711.19;4964666;28;20550;-67
2023/03/01 01:49:01;;;;;;;15.43;8.70;;;;;;;-145.18;100.00;46697.50;4991738;28;20073;-68
2023/03/01 01:51:38;;;;;;;14.52;8.45;;;;;;;-145.18;100.00;46705.31;4991337;28;20422;-67
2023/03/01 01:54:09;;;;;;;15.05;8.52;;;;;;;-145.18;100.00;46705.31;4991953;28;20031;-68
2023/03/01 01:56:38;;;;;;;15.77;8.60;;;;;;;-145.18;100.00;46713.13;4991253;28;20023;-68
2023/03/01 01:59:04;;;;;;;12.52;8.85;;;;;;;-145.18;100.00;46687.75;4991412;28;20034;-68
2023/03/01 02:01:30;;;;;;;16.52;9.20;;;;;;;-145.18;100.00;46693.59;4991155;28;20026;-67
2023/03/01 02:03:55;;;;;;;16.53;8.70;;;;;;;-145.18;100.00;46687.75;4991210;28;20446;-67
2023/03/01 02:06:28;;;;;;;16.30;9.53;;;;;;;-145.18;100.00;46681.88;4973399;28;20058;-67
2023/03/01 02:08:59;;;;;;;18.80;8.82;;;;;;;-145.18;100.00;46683.84;4991450;28;20483;-67
2023/03/01 02:11:27;;;;;;;16.60;9.38;;;;;;;-145.18;100.00;46677.97;4991030;28;20476;-68
2023/03/01 02:13:54;;;;;;;17.20;9.65;;;;;;;-145.18;100.00;46691.66;4991299;28;20026;-67
2023/03/01 02:16:20;;;;;;;13.85;8.75;;;;;;;-145.18;100.00;46681.88;4990800;28;20034;-67
2023/03/01 02:18:46;;;;;;;14.93;9.10;;;;;;;-145.18;100.00;46683.84;4991174;28;20031;-67
2023/03/01 02:21:17;;;;;;;14.93;8.87;;;;;;;-145.18;100.00;46668.22;4991293;28;20030;-68
2023/03/01 02:23:43;;;;;;;21.48;9.73;;;;;;;-145.18;100.00;46664.31;4991343;28;20292;-67
2023/03/01 02:26:25;;;;;;;13.50;8.60;;;;;;;-145.18;100.00;46662.34;4990993;28;20036;-67
2023/03/01 02:28:51;;;;;;;18.73;10.05;;;;;;;-145.18;100.00;46660.41;4991207;28;20045;-68
2023/03/01 02:34:04;;;;;;;21.30;9.63;;;;;;;-145.18;100.00;46652.59;4991112;28;20041;-67
2023/03/01 02:36:36;;;;;;;16.33;9.38;;;;;;;-145.18;100.00;46640.88;4990683;28;20035;-67
2023/03/01 02:39:04;;;;;;;16.85;10.10;;;;;;;-145.18;100.00;46642.81;4990901;28;20376;-67
2023/03/01 02:41:34;;;;;;;19.63;9.80;;;;;;;-145.18;100.00;46642.81;4990546;28;20026;-68
2023/03/01 02:43:59;;;;;;;17.65;10.15;;;;;;;-145.18;100.00;46650.63;4990920;28;20040;-67
2023/03/01 02:46:25;;;;;;;16.67;9.43;;;;;;;-145.18;100.00;46644.78;4990513;28;20117;-67
2023/03/01 02:48:53;;;;;;;16.05;9.48;;;;;;;-145.18;100.00;46642.81;4990874;28;20042;-67
2023/03/01 02:51:25;;;;;;;14.65;9.55;;;;;;;-145.18;100.00;46646.72;4990523;28;20372;-67
2023/03/01 02:54:32;;;;;;;18.50;10.15;;;;;;;-145.18;100.00;46646.72;4990880;28;20030;-67
2023/03/01 02:56:57;;;;;;;15.80;9.38;;;;;;;-145.18;100.00;46640.88;4979994;28;20056;-67
2023/03/01 02:59:28;;;;;;;17.60;9.43;;;;;;;-145.18;100.00;46644.78;4990441;28;20045;-68
2023/03/01 03:01:54;;;;;;;16.75;9.52;;;;;;;-145.18;100.00;46638.91;5464086;22;20123;-86
2023/03/01 03:04:20;;;;;;;15.60;9.87;;;;;;;-145.18;100.00;46642.81;4999603;23;20564;-68
2023/03/01 03:06:47;;;;;;;19.67;9.88;;;;;;;-145.18;100.00;46644.78;5010468;28;20504;-69
2023/03/01 03:09:15;;;;;;;16.08;8.90;;;;;;;-145.18;100.00;46635.00;5009844;28;20033;-68
2023/03/01 03:11:41;;;;;;;14.80;9.60;;;;;;;-145.18;100.00;46636.94;5010519;28;20500;-68
2023/03/01 03:14:12;;;;;;;15.45;9.88;;;;;;;-145.18;100.00;46646.72;5009729;28;20034;-68
2023/03/01 03:16:50;;;;;;;14.23;9.95;;;;;;;-145.18;100.00;46654.53;4992684;28;20054;-68
2023/03/01 03:19:18;;;;;;;20.80;10.40;;;;;;;-145.18;100.00;46646.72;5009541;28;20038;-69
2023/03/01 03:21:44;;;;;;;16.35;9.93;;;;;;;-145.18;100.00;46642.81;5010280;28;20042;-68
2023/03/01 03:24:09;;;;;;;17.90;10.80;;;;;;;-145.18;100.00;46648.69;5009671;28;20548;-69
2023/03/01 03:26:34;;;;;;;18.27;10.77;;;;;;;-145.18;100.00;46629.13;4992649;28;20040;-68
2023/03/01 03:29:00;;;;;;;20.93;10.90;;;;;;;-145.18;100.00;46633.06;5009756;28;20030;-69
2023/03/01 03:31:26;;;;;;;17.23;10.33;;;;;;;-145.18;100.00;46636.94;5010248;28;20077;-68
2023/03/01 03:33:51;;;;;;;19.47;10.50;;;;;;;-145.18;100.00;46633.06;5009958;28;20041;-68
2023/03/01 03:36:23;;;;;;;18.63;10.93;;;;;;;-145.18;100.00;46625.22;4992298;28;20030;-68
2023/03/01 03:38:48;;;;;;;19.52;11.15;;;;;;;-145.18;100.00;46635.00;5009712;28;20040;-68
2023/03/01 03:41:15;;;;;;;19.53;11.33;;;;;;;-145.18;100.00;46631.09;5009752;28;20501;-69
2023/03/01 03:43:42;;;;;;;17.50;11.02;;;;;;;-145.18;100.00;46633.06;5013740;28;20053;-68
2023/03/01 03:46:09;;;;;;;21.67;11.90;;;;;;;-145.18;100.00;46627.19;5013734;28;20065;-68
2023/03/01 03:48:39;;;;;;;21.38;11.95;;;;;;;-145.18;100.00;46629.13;5013678;28;20073;-69
2023/03/01 03:51:05;;;;;;;20.25;10.68;;;;;;;-145.18;100.00;46635.00;5013480;28;20030;-69
2023/03/01 03:53:31;;;;;;;16.87;11.17;;;;;;;-145.18;100.00;46627.19;5013323;28;21112;-68
2023/03/01 03:55:58;;;;;;;18.60;11.23;;;;;;;-145.18;100.00;46627.19;5013592;28;20033;-69
2023/03/01 03:58:25;;;;;;;20.25;11.38;;;;;;;-145.18;100.00;46631.09;5012847;28;20506;-69
2023/03/01 04:00:52;;;;;;;21.42;11.75;;;;;;;-145.18;100.00;46633.06;5013511;28;20503;-69
2023/03/01 04:03:19;;;;;;;21.45;11.10;;;;;;;-145.18;100.00;46625.22;5012955;28;20050;-68
2023/03/01 04:05:46;;;;;;;22.85;11.63;;;;;;;-145.18;100.00;46627.19;5013422;28;20042;-69
2023/03/01 04:08:13;;;;;;;20.10;11.18;;;;;;;-145.18;100.00;46660.41;5012874;28;20024;-69
2023/03/01 04:10:47;;;;;;;19.98;11.02;;;;;;;-145.18;100.00;46656.50;5013165;28;20054;-68
2023/03/01 04:13:16;;;;;;;19.42;11.68;;;;;;;-145.18;100.00;46660.41;5012993;28;20030;-68
2023/03/01 04:15:45;;;;;;;19.08;11.63;;;;;;;-145.18;100.00;46656.50;5013221;28;20036;-68
2023/03/01 04:18:15;;;;;;;19.70;12.05;;;;;;;-145.18;100.00;46660.41;5012707;28;20030;-68
2023/03/01 04:20:42;;;;;;;31.33;11.55;;;;;;;-145.18;100.00;46627.19;5013090;28;20146;-68
2023/03/01 04:23:12;;;;;;;18.00;11.30;;;;;;;-145.18;100.00;46660.41;5012835;28;20061;-68
2023/03/01 04:25:56;;;;;;;21.77;11.30;;;;;;;-145.18;100.00;46627.19;5013279;28;20437;-68
2023/03/01 04:28:27;;;;;;;20.38;10.93;;;;;;;-145.18;100.00;46635.00;5012672;28;20037;-68
2023/03/01 04:30:55;;;;;;;20.25;11.95;;;;;;;-145.18;100.00;46636.94;5013118;28;20391;-68
2023/03/01 04:33:21;;;;;;;21.23;11.68;;;;;;;-145.18;100.00;46631.09;5012664;28;20034;-69
2023/03/01 04:35:49;;;;;;;18.87;12.00;;;;;;;-145.18;100.00;46627.19;5013057;28;20421;-68
2023/03/01 04:38:15;;;;;;;18.60;11.75;;;;;;;-145.18;100.00;46629.13;5012269;28;20398;-68
2023/03/01 04:40:42;;;;;;;23.05;13.15;;;;;;;-145.18;100.00;46644.78;5012629;28;20040;-69
2023/03/01 04:43:09;;;;;;;23.17;11.80;;;;;;;-145.18;100.00;46635.00;5011118;28;20053;-68
2023/03/01 04:45:34;;;;;;;19.30;12.00;;;;;;;-145.18;100.00;46642.81;5012897;28;20026;-68
2023/03/01 04:48:00;;;;;;;21.87;13.27;;;;;;;-145.18;100.00;46636.94;5012375;28;20107;-68
2023/03/01 04:50:25;;;;;;;20.67;13.00;;;;;;;-145.18;100.00;46644.78;5012388;28;20033;-68
2023/03/01 04:52:52;;;;;;;18.80;12.03;;;;;;;-145.18;100.00;46638.91;5011691;28;20030;-69
2023/03/01 04:55:17;;;;;;;22.52;12.15;;;;;;;-145.18;100.00;46640.88;5012351;28;20110;-68
2023/03/01 04:57:43;;;;;;;17.77;11.00;;;;;;;-145.18;100.00;46635.00;5012310;28;20090;-68
2023/03/01 05:00:21;;;;;;;18.17;11.47;;;;;;;-145.18;100.00;46636.94;5012427;28;20030;-68
2023/03/01 05:02:48;;;;;;;19.65;11.75;;;;;;;-145.18;100.00;46640.88;5012083;28;20429;-68
2023/03/01 05:05:14;;;;;;;19.27;11.32;;;;;;;-145.18;100.00;46631.09;5011923;28;20620;-69
2023/03/01 05:07:40;;;;;;;21.40;11.32;;;;;;;-145.18;100.00;46636.94;5012074;28;20495;-68
2023/03/01 05:10:05;;;;;;;19.73;11.33;;;;;;;-145.18;100.00;46642.81;5012119;28;20117;-68
2023/03/01 05:12:31;;;;;;;18.00;11.30;;;;;;;-145.18;100.00;46642.81;5011948;28;20041;-68
2023/03/01 05:14:56;;;;;;;21.70;11.40;;;;;;;-145.18;100.00;46638.91;5011956;28;20038;-68
2023/03/01 05:17:22;;;;;;;20.77;11.67;;;;;;;-145.18;100.00;46646.72;5011746;28;20201;-68
2023/03/01 05:19:47;;;;;;;18.27;11.07;;;;;;;-145.18;100.00;46646.72;5011954;28;20450;-69
2023/03/01 05:22:13;;;;;;;18.47;10.77;;;;;;;-145.18;100.00;46646.72;5011805;28;20038;-68
2023/03/01 05:24:38;;;;;;;18.10;11.40;;;;;;;-145.18;100.00;46646.72;5011538;28;20034;-68
2023/03/01 05:27:04;;;;;;;21.23;11.53;;;;;;;-145.18;100.00;46644.78;5010411;28;20057;-68
2023/03/01 05:29:31;;;;;;;16.43;9.87;;;;;;;-145.18;100.00;46640.88;4994062;28;20092;-68
2023/03/01 05:32:00;;;;;;;16.83;9.77;;;;;;;-145.18;100.00;46664.31;5011685;28;20033;-68
2023/03/01 05:34:28;;;;;;;17.10;9.57;;;;;;;-145.18;100.00;46670.16;5009915;28;20516;-69
2023/03/01 05:36:54;;;;;;;17.48;10.90;;;;;;;-145.18;100.00;46660.41;5011408;28;20038;-68
2023/03/01 05:39:25;;;;;;;15.97;9.73;;;;;;;-145.18;100.00;46666.25;5011118;28;20045;-68
2023/03/01 05:41:56;;;;;;;21.48;10.50;;;;;;;-145.18;100.00;46687.75;5011445;28;20062;-68
2023/03/01 05:44:21;;;;;;;16.38;10.02;;;;;;;-145.18;100.00;46695.56;5011143;28;20047;-68
2023/03/01 05:46:47;;;;;;;17.73;10.53;;;;;;;-145.18;100.00;46703.38;5011764;28;20254;-68
2023/03/01 05:49:13;;;;;;;16.93;9.83;;;;;;;-145.18;100.00;46699.47;5009496;28;20037;-69
2023/03/01 05:51:47;;;;;;;16.92;9.90;;;;;;;-145.18;100.00;46701.41;5011394;28;20145;-68
2023/03/01 05:54:12;;;;;;;18.30;9.85;;;;;;;-145.18;100.00;46691.66;5010917;28;20036;-68
2023/03/01 05:56:37;;;;;;;16.43;9.27;;;;;;;-145.18;100.00;46705.31;5011192;28;20033;-68
2023/03/01 05:59:07;;;;;;;18.50;10.13;;;;;;;-145.18;100.00;46699.47;5010594;28;20486;-68
2023/03/01 06:01:35;;;;;;;14.60;9.65;;;;;;;-145.18;100.00;46703.38;5011248;28;20109;-69
2023/03/01 06:04:00;;;;;;;13.85;9.07;;;;;;;-145.18;100.00;46703.38;5008961;28;20185;-68
2023/03/01 06:06:26;;;;;;;17.77;9.83;;;;;;;-145.18;100.00;46697.50;5010614;28;20551;-68
2023/03/01 06:08:52;;;;;;;19.03;9.90;;;;;;;-145.18;100.00;46707.28;4993253;28;20036;-68
2023/03/01 06:11:18;;;;;;;19.88;10.88;;;;;;;-145.18;100.00;46717.03;5010983;28;20041;-68
2023/03/01 06:13:44;;;;;;;19.40;10.73;;;;;;;-145.18;100.00;46709.22;5010830;28;20037;-68
2023/03/01 06:16:10;;;;;;;22.30;10.27;;;;;;;-145.18;100.00;46695.56;5010877;28;20018;-68
2023/03/01 06:18:37;;;;;;;20.88;11.45;;;;;;;-145.18;100.00;46685.78;5010633;28;20041;-69
2023/03/01 06:21:03;;;;;;;21.42;11.77;;;;;;;-145.18;100.00;46685.78;5010764;28;20029;-68
2023/03/01 06:23:29;;;;;;;21.23;10.40;;;;;;;-145.18;100.00;46687.75;5010735;28;20040;-69
2023/03/01 06:25:54;;;;;;;21.80;11.00;;;;;;;-145.18;100.00;46677.97;5010865;28;20100;-68
2023/03/01 06:28:20;;;;;;;20.10;11.73;;;;;;;-145.18;100.00;46664.31;5010408;28;20121;-68
2023/03/01 06:30:46;;;;;;;22.73;12.30;;;;;;;-145.18;100.00;46658.44;5010852;28;20470;-68
2023/03/01 06:33:11;;;;;;;24.73;12.43;;;;;;;-145.18;100.00;46666.25;4992598;28;20034;-68
2023/03/01 06:35:36;;;;;;;22.50;12.03;;;;;;;-145.18;100.00;46652.59;5010812;28;20065;-68
2023/03/01 06:38:03;;;;;;;19.67;11.33;;;;;;;-145.18;100.00;46654.53;5010371;28;20037;-68
2023/03/01 06:40:31;;;;;;;19.98;11.23;;;;;;;-145.18;100.00;46656.50;5010755;28;20029;-68
2023/03/01 06:42:57;;;;;;;20.30;11.98;;;;;;;-145.18;100.00;46656.50;5009266;28;20089;-68
2023/03/01 06:45:23;;;;;;;20.67;11.93;;;;;;;-145.18;100.00;46662.34;5010430;28;20157;-69
2023/03/01 06:47:48;;;;;;;25.67;12.63;;;;;;;-145.18;100.00;46664.31;5010403;28;20038;-68
2023/03/01 06:50:15;;;;;;;20.77;11.53;;;;;;;-145.18;100.00;46666.25;5010288;28;20406;-68
2023/03/01 06:52:40;;;;;;;21.48;11.35;;;;;;;-145.18;100.00;46679.94;5010337;28;20036;-68
2023/03/01 06:55:06;;;;;;;17.73;10.67;;;;;;;-145.18;100.00;46695.56;5010207;28;20413;-69
2023/03/01 06:57:32;;;;;;;21.27;11.43;;;;;;;-145.18;100.00;46699.47;5010449;28;20116;-68
2023/03/01 06:59:57;;;;;;;19.17;11.07;;;;;;;-145.18;100.00;46703.38;5010167;28;20037;-68
2023/03/01 07:02:23;;;;;;;21.00;10.90;;;;;;;-145.18;100.00;46703.38;5010182;28;20408;-68
2023/03/01 07:04:50;;;;;;;18.87;10.57;;;;;;;-145.18;100.00;46705.31;5009987;28;20463;-68
2023/03/01 07:07:15;;;;;;;20.98;10.73;;;;;;;-145.18;100.00;46693.59;5010123;28;20030;-68
2023/03/01 07:09:40;;;;;;;23.37;11.63;;;;;;;-145.18;100.00;46701.41;5010263;28;20486;-68
2023/03/01 07:12:06;;;;;;;22.77;11.93;;;;;;;-145.18;100.00;46703.38;5010110;28;20064;-68
2023/03/01 07:14:32;;;;;;;21.43;11.80;;;;;;;-145.18;100.00;46707.28;4992643;28;20052;-68
2023/03/01 07:16:57;;;;;;;23.87;11.70;;;;;;;-145.18;100.00;46709.22;5012887;28;20099;-68
2023/03/01 07:19:22;;;;;;;19.03;10.43;;;;;;;-145.18;100.00;46715.09;5012463;28;20081;-68
2023/03/01 07:21:48;;;;;;;19.80;10.60;;;;;;;-145.18;100.00;46699.47;5014300;28;20501;-68
2023/03/01 07:24:13;;;;;;;22.50;11.30;;;;;;;-145.18;100.00;46699.47;5013777;28;20506;-68
2023/03/01 07:26:39;;;;;;;20.93;11.43;;;;;;;-145.18;100.00;46703.38;5014042;28;20482;-68
2023/03/01 07:29:06;;;;;;;18.07;11.17;;;;;;;-145.18;100.00;46722.91;5013838;28;20166;-68
2023/03/01 07:31:32;;;;;;;18.27;10.77;;;;;;;-145.18;100.00;46730.72;5014020;28;20514;-68
2023/03/01 07:33:58;;;;;;;18.37;10.60;;;;;;;-145.18;100.00;46722.91;5013670;28;20092;-68
2023/03/01 07:36:24;;;;;;;20.10;11.03;;;;;;;-145.18;100.00;46738.53;5013779;28;20934;-68
2023/03/01 07:38:50;;;;;;;18.77;11.20;;;;;;;-145.18;100.00;46750.25;5013604;28;20038;-68
2023/03/01 07:41:15;;;;;;;20.30;11.00;;;;;;;-145.18;100.00;46756.09;5013777;28;20041;-68
2023/03/01 07:43:40;;;;;;;19.03;9.63;;;;;;;-145.18;100.00;46761.97;5013661;28;20030;-68
2023/03/01 07:46:06;;;;;;;15.83;10.10;;;;;;;-145.18;100.00;46779.56;5013648;28;20103;-68
2023/03/01 07:48:32;;;;;;;18.03;10.67;;;;;;;-145.18;100.00;46773.69;5013490;28;20486;-68
2023/03/01 07:51:02;;;;;;;17.08;10.75;;;;;;;-145.18;100.00;46769.78;5013895;28;20525;-68
2023/03/01 07:53:27;;;;;;;14.73;10.25;;;;;;;-145.18;100.00;46801.03;5013150;28;20486;-68
2023/03/01 07:56:07;;;;;;;14.30;9.27;;;;;;;-145.18;100.00;46812.75;5013652;28;20041;-69
2023/03/01 07:58:38;;;;;;;17.65;9.88;;;;;;;-145.18;100.00;46828.38;5013371;28;20056;-68
2023/03/01 08:01:06;;;;;;;17.13;9.60;;;;;;;-145.18;100.00;46883.09;5013238;28;20030;-68
2023/03/01 08:03:31;;;;;;;18.75;9.43;;;;;;;-145.18;100.00;46879.19;5013040;28;20053;-69
2023/03/01 08:05:59;;;;;;;15.43;8.87;;;;;;;-145.18;100.00;46898.72;5013371;28;20037;-68
2023/03/01 08:08:25;;;;;;;19.05;11.13;;;;;;;-145.18;100.00;46881.13;5012839;28;20038;-68
2023/03/01 08:10:51;;;;;;;16.70;10.63;;;;;;;-145.18;100.00;46928.00;5013391;28;20045;-68
2023/03/01 08:13:16;;;;;;;16.57;9.67;;;;;;;-145.18;100.00;46976.84;5012913;28;20092;-68
2023/03/01 08:15:41;;;;;;;14.87;8.90;;;;;;;-145.18;100.00;46992.47;5013208;28;20040;-68
2023/03/01 08:18:07;;;;;;;14.87;8.27;;;;;;;-145.18;100.00;47008.09;5012629;28;20347;-68
2023/03/01 08:20:32;;;;;;;14.03;8.37;;;;;;;-145.18;100.00;47045.22;4995511;28;20057;-68
2023/03/01 08:22:58;;;;;;;12.97;7.47;;;;;;;-145.18;100.00;47125.31;5012793;28;20041;-68
2023/03/01 08:25:23;;;;;;;14.40;7.00;;;;;;;-145.18;100.00;47111.66;5012676;28;20470;-68
2023/03/01 08:27:48;;;;;;;15.70;7.73;;;;;;;-145.18;100.00;47152.66;5012312;28;20033;-68
2023/03/01 08:30:14;;;;;;;12.10;7.30;;;;;;;-145.18;100.00;47238.63;5012671;28;20041;-68
2023/03/01 08:32:39;;;;;;;14.80;7.73;;;;;;;-145.18;100.00;47375.38;5012863;28;20105;-68
2023/03/01 08:35:06;;;;;;;18.77;8.43;;;;;;;-145.18;100.00;47519.97;5012218;28;20395;-68
2023/03/01 08:37:32;;;;;;;14.48;7.47;;;;;;;-145.18;100.00;47643.03;5012836;28;20029;-69
2023/03/01 08:39:58;;;;;;;13.95;7.75;;;;;;;-145.18;100.00;47660.63;5012630;28;20049;-68
2023/03/01 08:42:23;;;;;;;16.50;8.13;;;;;;;-145.18;100.00;47701.66;5012570;28;20030;-68
2023/03/01 08:44:49;;;;;;;11.27;6.90;;;;;;;-145.18;100.00;47705.56;5012518;28;20038;-68
2023/03/01 08:47:14;;;;;;;11.83;7.00;;;;;;;-145.18;100.00;47744.66;5012398;28;20387;-68
2023/03/01 08:49:39;;;;;;;17.83;8.30;;;;;;;-145.18;100.00;47750.50;4994740;28;20109;-68
2023/03/01 08:52:05;;;;;;;14.73;6.50;;;;;;;-145.18;100.00;47736.84;5012493;28;20442;-68
2023/03/01 08:54:30;;;;;;;14.47;7.30;;;;;;;-145.18;100.00;47758.31;5012400;28;20053;-68
2023/03/01 08:56:58;;;;;;;13.53;6.90;;;;;;;-145.18;100.00;47732.94;5012265;28;20096;-68
2023/03/01 08:59:25;;;;;;;11.82;6.75;;;;;;;-145.18;100.00;47732.94;5011921;28;20046;-68
2023/03/01 09:01:50;;;;;;;14.50;7.00;;;;;;;-145.18;100.00;47717.28;5012336;28;20025;-68
2023/03/01 09:04:16;;;;;;;14.37;7.13;;;;;;;-145.18;100.00;47719.25;5011859;28;20446;-69
2023/03/01 09:06:42;;;;;;;11.80;6.70;;;;;;;-145.18;100.00;47727.06;5012191;28;20041;-68
2023/03/01 09:09:14;;;;;;;11.30;6.33;;;;;;;-145.18;100.00;47711.44;5011694;28;20034;-68
2023/03/01 09:11:40;;;;;;;12.05;6.75;;;;;;;-145.18;100.00;47686.03;5012330;28;20030;-69
2023/03/01 09:14:06;;;;;;;14.47;6.90;;;;;;;-145.18;100.00;47684.06;5011766;28;20028;-69
2023/03/01 09:16:35;;;;;;;11.30;6.53;;;;;;;-145.18;100.00;47684.06;5012202;28;20388;-68
2023/03/01 09:19:02;;;;;;;14.05;7.00;;;;;;;-145.18;100.00;47678.22;5017366;28;20049;-68
2023/03/01 09:21:27;;;;;;;13.10;7.30;;;;;;;-145.18;100.00;47670.41;5031798;28;20494;-69
2023/03/01 09:23:53;;;;;;;15.80;6.97;;;;;;;-145.18;100.00;47654.78;5031671;28;20140;-69
2023/03/01 09:26:21;;;;;;;14.60;7.17;;;;;;;-145.18;100.00;47676.25;5031644;28;20036;-68
2023/03/01 09:28:48;;;;;;;12.63;6.70;;;;;;;-145.18;100.00;47660.63;5031415;28;20021;-69
2023/03/01 09:31:15;;;;;;;12.07;7.10;;;;;;;-145.18;100.00;47664.53;5031323;28;20429;-69
2023/03/01 09:33:42;;;;;;;16.33;6.97;;;;;;;-145.18;100.00;47627.41;5031477;28;20313;-69
2023/03/01 09:36:20;;;;;;;10.30;6.33;;;;;;;-145.18;100.00;47611.78;5031414;28;20762;-69
2023/03/01 09:38:46;;;;;;;11.60;6.47;;;;;;;-145.18;100.00;47631.31;5031122;28;20278;-69
2023/03/01 09:41:38;;;;;;;13.13;6.87;;;;;;;-145.18;100.00;47619.59;5030997;28;20353;-69
2023/03/01 09:44:18;;;;;;;14.87;7.10;;;;;;;-145.18;100.00;47617.66;5031047;28;20770;-68
2023/03/01 09:46:45;;;;;;;11.67;5.90;;;;;;;-145.18;100.00;47613.75;5031448;28;20413;-69
2023/03/01 09:49:16;;;;;;;11.80;5.87;;;;;;;-145.18;100.00;47617.66;5030768;28;20346;-69
2023/03/01 09:51:46;;;;;;;11.27;6.37;;;;;;;-145.18;100.00;47617.66;5031286;28;20263;-69
2023/03/01 09:54:11;;;;;;;12.47;6.50;;;;;;;-145.18;100.00;47611.78;5030379;28;20274;-69
2023/03/01 09:56:41;;;;;;;18.97;5.97;;;;;;;-145.18;100.00;47586.38;5031154;28;20267;-69
2023/03/01 09:59:25;;;;;;;12.67;6.20;;;;;;;-145.18;100.00;47596.16;5030942;28;20029;-68
2023/03/01 10:02:17;;;;;;;8.63;5.47;;;;;;;-145.18;100.00;47590.28;5030877;28;20467;-69
2023/03/01 10:04:49;;;;;;;10.03;5.20;;;;;;;-145.18;100.00;47598.09;5030679;28;20822;-69
2023/03/01 10:07:39;;;;;;;9.80;5.77;;;;;;;-145.18;100.00;47598.09;5030634;28;20318;-69
2023/03/01 10:10:07;;;;;;;8.43;5.03;;;;;;;-145.18;100.00;47582.47;5030448;28;20289;-69
2023/03/01 10:12:37;;;;;;;13.33;5.70;;;;;;;-145.18;100.00;47594.19;5031005;28;20360;-69
2023/03/01 10:15:10;;;;;;;8.40;5.00;;;;;;;-145.18;100.00;47574.66;5030542;28;20611;-68
2023/03/01 10:17:48;;;;;;;9.50;5.17;;;;;;;-145.18;100.00;47586.38;5030757;28;20275;-69
2023/03/01 10:20:25;;;;;;;11.23;5.13;;;;;;;-145.18;100.00;47594.19;5030194;28;20263;-69
2023/03/01 10:22:52;;;;;;;10.93;5.40;;;;;;;-145.18;100.00;47586.38;5030533;28;20747;-68
2023/03/01 10:25:39;;;;;;;8.60;5.63;;;;;;;-145.18;100.00;47576.63;5030019;28;20612;-69
2023/03/01 10:28:15;;;;;;;11.20;5.27;;;;;;;-145.18;100.00;47570.75;5030471;28;20281;-69
2023/03/01 10:30:43;;;;;;;7.97;4.80;;;;;;;-145.18;100.00;47564.91;5030322;28;20267;-68
2023/03/01 10:33:29;;;;;;;7.07;4.07;;;;;;;-145.18;100.00;47580.53;5030143;28;20294;-69
2023/03/01 10:35:54;;;;;;;7.53;3.95;;;;;;;-145.18;100.00;47590.28;5030507;28;20805;-69
2023/03/01 10:38:21;;;;;;;10.23;4.97;;;;;;;-145.18;100.00;47562.94;5030037;28;20041;-69
2023/03/01 10:40:56;;;;;;;11.73;5.60;;;;;;;-145.18;100.00;47574.66;5030199;28;20482;-69
2023/03/01 10:43:23;;;;;;;;;;;;;;;-145.18;100.00;47559.03;5030529;28;20604;-69
2023/03/01 10:45:48;;;;;;;9.25;4.55;;;;;;;-145.18;100.00;47549.25;5030203;28;19923;-69
2023/03/01 10:48:19;;;;;;;8.97;4.77;;;;;;;-145.18;100.00;47543.41;5029968;28;20038;-68
2023/03/01 10:50:50;;;;;;;6.60;4.10;;;;;;;-145.18;100.00;47541.44;5029482;28;20041;-69
2023/03/01 10:53:21;;;;;;;9.53;3.47;;;;;;;-145.18;100.00;47559.03;5029947;28;20271;-69
2023/03/01 10:55:55;;;;;;;8.57;4.17;;;;;;;-145.18;100.00;47559.03;5029943;28;20309;-68
2023/03/01 10:58:22;;;;;;;6.50;3.57;;;;;;;-145.18;100.00;47541.44;5012085;28;20306;-69
2023/03/01 11:00:52;;;;;;;7.13;4.20;;;;;;;-145.18;100.00;47541.44;5029927;28;20259;-69
2023/03/01 11:03:22;;;;;;;7.87;3.53;;;;;;;-145.18;100.00;47545.34;5029721;28;20289;-69
2023/03/01 11:05:53;;;;;;;8.60;4.57;;;;;;;-145.18;100.00;47555.13;5029932;28;20263;-69